Time;durP1;ratioP1;P1;durP2;ratioP2;P2;SDS_P1;SDS_P2;PMS_P1;PMS_P2;Temp;Humidity;BMP_temperature;BMP_pressure;BME280_temperature;BME280_humidity;BME280_pressure;Samples;Min_cycle;Max_cycle;Signal;HPM_P1;HPM_P2
2023/05/06 00:00:46;;;;;;;1.50;1.00;;;13.30;98.20;;;;;;4993787;28;21055;-81
2023/05/06 00:03:13;;;;;;;1.50;1.00;;;13.30;98.20;;;;;;4998973;28;20468;-80
2023/05/06 00:05:41;;;;;;;1.50;1.00;;;13.30;98.20;;;;;;4995943;28;20568;-79
2023/05/06 00:08:08;;;;;;;1.50;1.00;;;13.30;98.20;;;;;;4967584;28;20484;-79
2023/05/06 00:10:36;;;;;;;1.50;1.00;;;13.30;98.20;;;;;;4995094;28;20452;-79
2023/05/06 00:13:02;;;;;;;1.50;1.00;;;13.20;98.20;;;;;;4960385;28;20477;-80
2023/05/06 00:15:29;;;;;;;1.50;1.10;;;13.20;98.20;;;;;;4994214;28;20969;-80
2023/05/06 00:17:56;;;;;;;1.50;1.10;;;13.10;98.20;;;;;;4964693;28;20493;-78
2023/05/06 00:20:23;;;;;;;1.50;1.00;;;13.10;98.20;;;;;;4995597;28;20892;-82
2023/05/06 00:22:50;;;;;;;1.50;1.00;;;13.10;98.20;;;;;;4959941;28;20486;-82
2023/05/06 00:25:17;;;;;;;1.50;1.10;;;13.10;98.20;;;;;;4988961;28;20551;-78
2023/05/06 00:27:45;;;;;;;1.70;1.47;;;13.10;98.20;;;;;;4985793;28;20503;-77
2023/05/06 00:30:12;;;;;;;1.50;1.00;;;13.00;98.20;;;;;;4989878;28;20970;-78
2023/05/06 00:32:39;;;;;;;1.50;1.00;;;13.00;98.20;;;;;;4985909;28;20488;-79
2023/05/06 00:35:07;;;;;;;1.50;1.00;;;12.90;98.20;;;;;;4988213;28;20469;-78
2023/05/06 00:37:34;;;;;;;1.50;1.10;;;12.90;98.20;;;;;;4965413;28;20535;-78
2023/05/06 00:40:01;;;;;;;1.50;0.90;;;12.90;98.20;;;;;;4990457;28;20488;-78
2023/05/06 00:42:27;;;;;;;1.50;1.10;;;12.90;98.20;;;;;;4966301;28;20497;-78
2023/05/06 00:44:56;;;;;;;1.50;1.10;;;12.90;98.20;;;;;;4993131;28;20839;-78
2023/05/06 00:47:23;;;;;;;1.50;1.00;;;12.90;98.20;;;;;;4970153;28;20492;-79
2023/05/06 00:49:51;;;;;;;1.50;1.00;;;12.90;98.20;;;;;;4987507;28;20461;-79
2023/05/06 00:52:19;;;;;;;1.50;1.10;;;12.90;98.20;;;;;;4960171;28;20493;-78
2023/05/06 00:54:46;;;;;;;2.03;1.33;;;12.80;98.20;;;;;;4983228;28;20457;-78
2023/05/06 00:57:13;;;;;;;1.50;1.00;;;12.80;98.20;;;;;;4974591;28;20481;-79
2023/05/06 00:59:40;;;;;;;1.50;1.07;;;12.80;98.20;;;;;;4989325;28;20492;-79
2023/05/06 01:02:08;;;;;;;1.50;1.00;;;12.70;98.20;;;;;;4984201;28;20915;-79
2023/05/06 01:04:36;;;;;;;1.50;1.00;;;12.70;98.20;;;;;;4992875;28;20880;-79
2023/05/06 01:07:11;;;;;;;1.50;1.00;;;12.70;98.20;;;;;;4972676;28;20929;-78
2023/05/06 01:09:42;;;;;;;1.50;1.10;;;12.60;98.20;;;;;;4985313;28;20471;-79
2023/05/06 01:12:16;;;;;;;1.53;1.10;;;12.60;98.20;;;;;;4979308;28;20488;-80
2023/05/06 01:14:51;;;;;;;1.50;1.00;;;12.60;98.20;;;;;;4990522;28;20460;-80
2023/05/06 01:17:20;;;;;;;1.50;1.10;;;12.50;98.20;;;;;;4969911;28;20494;-80
2023/05/06 01:19:49;;;;;;;1.50;1.10;;;12.50;98.20;;;;;;4996904;28;20489;-80
2023/05/06 01:22:16;;;;;;;1.50;1.00;;;12.50;98.20;;;;;;4989935;28;20496;-80
2023/05/06 01:24:45;;;;;;;1.50;1.00;;;12.40;98.20;;;;;;4992496;28;20457;-80
2023/05/06 01:27:15;;;;;;;1.50;1.00;;;12.40;98.20;;;;;;4969604;28;20496;-79
2023/05/06 01:29:44;;;;;;;1.50;1.10;;;12.40;98.20;;;;;;4988240;28;20938;-78
2023/05/06 01:32:26;;;;;;;1.50;0.90;;;12.40;98.20;;;;;;4990443;28;20508;-80
2023/05/06 01:34:59;;;;;;;1.50;1.03;;;12.40;98.20;;;;;;4994477;28;20484;-78
2023/05/06 01:37:34;;;;;;;1.50;0.93;;;12.40;98.20;;;;;;4993257;28;20496;-79
2023/05/06 01:40:04;;;;;;;1.50;1.10;;;12.40;98.20;;;;;;4979638;28;20772;-79
2023/05/06 01:42:34;;;;;;;1.50;0.90;;;12.40;98.20;;;;;;5042900;28;20579;-80
2023/05/06 01:45:02;;;;;;;1.50;1.10;;;12.40;98.20;;;;;;4995696;28;20872;-79
2023/05/06 01:47:29;;;;;;;1.50;1.10;;;12.30;98.20;;;;;;4987486;28;20499;-79
2023/05/06 01:49:57;;;;;;;1.50;1.00;;;12.40;98.20;;;;;;4981124;28;20474;-82
2023/05/06 01:52:26;;;;;;;1.50;1.07;;;12.40;98.20;;;;;;4989064;28;20492;-79
2023/05/06 01:54:53;;;;;;;1.60;1.10;;;12.30;98.20;;;;;;4982035;28;20462;-79
2023/05/06 01:57:21;;;;;;;1.50;1.10;;;12.30;98.20;;;;;;4961197;28;20484;-79
2023/05/06 01:59:48;;;;;;;1.50;1.00;;;12.30;98.20;;;;;;4980978;28;20616;-80
2023/05/06 02:02:14;;;;;;;1.50;1.00;;;12.20;98.20;;;;;;4988720;28;20484;-80
2023/05/06 02:04:41;;;;;;;1.50;1.00;;;12.20;98.20;;;;;;4984799;28;20963;-79
2023/05/06 02:07:08;;;;;;;1.50;1.00;;;12.20;98.20;;;;;;4982230;28;20487;-79
2023/05/06 02:09:35;;;;;;;1.50;1.10;;;12.20;98.20;;;;;;4986501;28;20465;-79
2023/05/06 02:12:01;;;;;;;1.50;1.00;;;12.20;98.20;;;;;;4969667;28;20490;-78
2023/05/06 02:14:30;;;;;;;1.50;1.03;;;12.20;98.20;;;;;;4986505;28;20465;-79
2023/05/06 02:16:56;;;;;;;1.50;1.00;;;12.30;98.20;;;;;;4979089;28;20491;-79
2023/05/06 02:19:23;;;;;;;1.50;1.03;;;12.30;98.20;;;;;;4989244;28;20485;-79
2023/05/06 02:21:50;;;;;;;1.50;1.00;;;12.30;98.20;;;;;;4980435;28;20483;-78
2023/05/06 02:24:17;;;;;;;1.50;1.00;;;12.30;98.20;;;;;;4989705;28;20480;-80
2023/05/06 02:26:43;;;;;;;1.50;1.00;;;12.30;98.20;;;;;;4976155;28;20472;-79
2023/05/06 02:29:10;;;;;;;1.50;1.00;;;12.30;98.20;;;;;;4990601;28;20478;-79
2023/05/06 02:31:38;;;;;;;1.50;1.10;;;12.30;98.20;;;;;;4977284;28;20911;-80
2023/05/06 02:34:05;;;;;;;1.50;0.97;;;12.30;98.20;;;;;;4989297;28;20978;-79
2023/05/06 02:36:32;;;;;;;1.50;1.20;;;12.30;98.20;;;;;;4975609;28;20566;-79
2023/05/06 02:38:59;;;;;;;1.50;1.00;;;12.30;98.20;;;;;;4994024;28;20485;-80
2023/05/06 02:41:26;;;;;;;1.50;1.13;;;12.20;98.20;;;;;;4976934;28;20472;-79
2023/05/06 02:43:52;;;;;;;1.50;1.10;;;12.20;98.20;;;;;;4995227;28;20500;-79
2023/05/06 02:46:19;;;;;;;1.50;1.00;;;12.10;98.20;;;;;;4972768;28;20477;-80
2023/05/06 02:48:47;;;;;;;1.50;1.07;;;12.10;98.20;;;;;;4991852;28;20480;-80
2023/05/06 02:51:14;;;;;;;1.50;1.03;;;12.00;98.20;;;;;;4968774;28;20674;-80
2023/05/06 02:53:41;;;;;;;1.50;1.00;;;12.00;98.20;;;;;;4994196;28;20962;-78
2023/05/06 02:56:08;;;;;;;1.50;1.10;;;12.00;98.20;;;;;;4986580;28;20458;-79
2023/05/06 02:58:35;;;;;;;1.50;1.10;;;12.00;98.20;;;;;;5043888;28;20476;-77
2023/05/06 03:01:01;;;;;;;1.50;1.10;;;11.90;98.20;;;;;;4980250;28;20481;-80
2023/05/06 03:03:28;;;;;;;1.50;1.10;;;11.90;98.20;;;;;;5001263;28;20471;-79
2023/05/06 03:05:56;;;;;;;1.53;1.10;;;11.80;98.20;;;;;;4974467;28;20464;-80
2023/05/06 03:08:23;;;;;;;1.50;1.10;;;11.90;98.20;;;;;;5000211;28;20481;-81
2023/05/06 03:10:51;;;;;;;1.50;1.00;;;11.90;98.20;;;;;;4968650;28;20469;-81
2023/05/06 03:13:18;;;;;;;1.50;1.00;;;11.90;98.20;;;;;;4992798;28;20521;-78
2023/05/06 03:15:44;;;;;;;1.50;1.00;;;11.90;98.20;;;;;;4981586;28;20466;-80
2023/05/06 03:18:11;;;;;;;1.50;1.00;;;11.90;98.20;;;;;;4989178;28;20480;-80
2023/05/06 03:20:38;;;;;;;1.50;1.10;;;11.90;98.20;;;;;;4979631;28;20495;-80
2023/05/06 03:23:06;;;;;;;1.50;1.10;;;11.80;98.20;;;;;;4975156;28;20507;-80
2023/05/06 03:25:33;;;;;;;1.50;1.00;;;11.80;98.20;;;;;;4982912;28;20467;-79
2023/05/06 03:28:00;;;;;;;1.50;1.10;;;11.80;98.20;;;;;;4992235;28;20486;-79
2023/05/06 03:30:27;;;;;;;1.50;1.10;;;11.80;98.20;;;;;;4979894;28;20465;-80
2023/05/06 03:32:55;;;;;;;1.50;1.10;;;11.80;98.20;;;;;;4989425;28;20492;-79
2023/05/06 03:35:22;;;;;;;1.50;1.10;;;11.80;98.20;;;;;;4979216;28;20457;-79
2023/05/06 03:37:49;;;;;;;1.50;1.10;;;11.80;98.20;;;;;;4984620;28;20476;-78
2023/05/06 03:40:17;;;;;;;1.50;1.10;;;11.80;98.20;;;;;;4983549;28;20461;-79
2023/05/06 03:42:44;;;;;;;1.50;1.00;;;11.80;98.20;;;;;;4984734;28;20484;-79
2023/05/06 03:45:11;;;;;;;1.50;1.13;;;11.70;98.20;;;;;;4981164;28;20555;-81
2023/05/06 03:47:38;;;;;;;1.50;1.10;;;11.70;98.20;;;;;;4959628;28;20485;-79
2023/05/06 03:50:06;;;;;;;1.50;1.00;;;11.60;98.20;;;;;;4991447;28;20492;-80
2023/05/06 03:52:32;;;;;;;1.50;1.10;;;11.60;98.20;;;;;;4965640;28;20997;-79
2023/05/06 03:54:59;;;;;;;1.50;1.10;;;11.60;98.20;;;;;;4990431;28;20957;-80
2023/05/06 03:57:27;;;;;;;1.50;1.00;;;11.60;98.20;;;;;;4966281;28;20588;-79
2023/05/06 03:59:54;;;;;;;1.50;1.00;;;11.70;98.20;;;;;;4989781;28;20465;-80
2023/05/06 04:02:21;;;;;;;1.50;1.10;;;11.70;98.20;;;;;;4966737;28;20787;-80
2023/05/06 04:04:48;;;;;;;1.50;1.00;;;11.80;98.20;;;;;;4989602;28;20491;-79
2023/05/06 04:07:14;;;;;;;1.50;1.13;;;11.80;98.20;;;;;;4981074;28;20481;-80
2023/05/06 04:09:41;;;;;;;1.50;1.10;;;11.80;98.20;;;;;;4995511;28;20767;-80
2023/05/06 04:12:08;;;;;;;1.50;1.00;;;11.80;98.20;;;;;;4966728;28;21029;-80
2023/05/06 04:14:36;;;;;;;1.50;1.20;;;11.80;98.20;;;;;;4979478;28;20815;-80
2023/05/06 04:17:03;;;;;;;1.50;1.10;;;11.90;98.20;;;;;;4983362;28;20876;-80
2023/05/06 04:19:31;;;;;;;1.50;1.10;;;11.90;98.20;;;;;;5003974;28;20476;-79
2023/05/06 04:21:58;;;;;;;1.50;1.10;;;11.90;98.20;;;;;;5010241;28;20471;-78
2023/05/06 04:24:27;;;;;;;1.50;1.00;;;11.90;98.20;;;;;;5013292;28;20485;-79
2023/05/06 04:26:53;;;;;;;1.50;1.00;;;12.00;98.20;;;;;;4977584;28;20499;-77
2023/05/06 04:29:20;;;;;;;1.50;1.00;;;12.00;98.20;;;;;;4986342;28;20504;-78
2023/05/06 04:31:48;;;;;;;1.50;1.00;;;12.00;98.20;;;;;;4967895;28;20493;-78
2023/05/06 04:34:15;;;;;;;1.50;1.00;;;12.10;98.20;;;;;;4976065;28;20461;-78
2023/05/06 04:36:42;;;;;;;1.50;1.00;;;12.10;98.20;;;;;;4968139;28;20485;-79
2023/05/06 04:39:09;;;;;;;1.50;1.10;;;12.20;98.20;;;;;;4978998;28;20491;-77
2023/05/06 04:41:36;;;;;;;1.50;1.00;;;12.20;98.20;;;;;;4982688;28;20540;-79
2023/05/06 04:44:03;;;;;;;1.50;1.00;;;12.20;98.20;;;;;;4987217;28;20518;-79
2023/05/06 04:46:30;;;;;;;1.50;1.00;;;12.30;98.20;;;;;;4969880;28;20492;-79
2023/05/06 04:48:58;;;;;;;1.50;1.00;;;12.30;98.20;;;;;;4974928;28;20485;-78
2023/05/06 04:51:25;;;;;;;1.50;1.00;;;12.40;98.20;;;;;;4968930;28;20490;-79
2023/05/06 04:53:52;;;;;;;1.50;1.00;;;12.40;98.20;;;;;;4975071;28;20466;-79
2023/05/06 04:56:20;;;;;;;1.80;1.40;;;12.40;98.20;;;;;;4969467;28;20500;-80
2023/05/06 04:58:46;;;;;;;1.50;1.00;;;12.40;98.20;;;;;;4976302;28;20534;-78
2023/05/06 05:01:13;;;;;;;1.50;1.00;;;12.50;98.20;;;;;;4977701;28;20485;-78
2023/05/06 05:03:40;;;;;;;1.50;1.00;;;12.50;98.20;;;;;;4975662;28;20858;-80
2023/05/06 05:06:08;;;;;;;1.50;1.00;;;12.50;98.20;;;;;;4980396;28;20466;-79
2023/05/06 05:08:35;;;;;;;1.50;1.07;;;12.60;98.20;;;;;;4992448;28;20544;-79
2023/05/06 05:11:02;;;;;;;1.50;1.00;;;12.60;98.20;;;;;;4979870;28;20465;-78
2023/05/06 05:13:28;;;;;;;1.50;1.00;;;12.60;98.20;;;;;;4991000;28;20484;-80
2023/05/06 05:15:55;;;;;;;1.50;1.00;;;12.60;98.20;;;;;;4976991;28;20804;-78
2023/05/06 05:18:22;;;;;;;1.50;1.03;;;12.60;98.20;;;;;;4973791;28;20496;-80
2023/05/06 05:20:49;;;;;;;1.50;1.00;;;12.60;98.20;;;;;;4980509;28;20468;-79
2023/05/06 05:23:17;;;;;;;1.50;1.00;;;12.50;98.20;;;;;;4973208;28;20630;-80
2023/05/06 05:25:44;;;;;;;1.50;1.03;;;12.50;98.20;;;;;;4988508;28;20783;-80
2023/05/06 05:28:10;;;;;;;1.50;1.00;;;12.50;98.20;;;;;;4965999;28;20488;-81
2023/05/06 05:30:37;;;;;;;1.50;1.00;;;12.50;98.20;;;;;;4988623;28;20468;-79
2023/05/06 05:33:04;;;;;;;1.50;1.00;;;12.60;98.20;;;;;;4976733;28;21009;-80
2023/05/06 05:35:31;;;;;;;1.50;1.00;;;12.70;98.20;;;;;;4991588;28;20456;-80
2023/05/06 05:37:58;;;;;;;1.50;1.00;;;13.00;98.20;;;;;;4997941;28;20848;-79
2023/05/06 05:40:26;;;;;;;1.50;1.00;;;13.10;98.20;;;;;;4989743;28;20817;-81
2023/05/06 05:42:53;;;;;;;1.50;1.00;;;13.20;98.20;;;;;;4980584;28;20489;-80
2023/05/06 05:45:20;;;;;;;1.50;1.00;;;13.30;98.20;;;;;;4989279;28;20468;-79
2023/05/06 05:47:47;;;;;;;1.50;1.00;;;13.30;98.20;;;;;;4977488;28;20572;-81
2023/05/06 05:50:14;;;;;;;1.50;1.00;;;13.30;98.20;;;;;;4991176;28;20476;-81
2023/05/06 05:52:40;;;;;;;1.50;1.10;;;13.30;98.20;;;;;;4982726;28;20516;-79
2023/05/06 05:55:08;;;;;;;1.50;1.00;;;13.30;98.20;;;;;;4991006;28;20550;-82
2023/05/06 05:57:36;;;;;;;1.50;0.90;;;13.40;98.20;;;;;;4981880;28;20905;-79
2023/05/06 06:00:04;;;;;;;1.50;0.90;;;13.40;98.20;;;;;;4989958;28;20534;-81
2023/05/06 06:02:33;;;;;;;1.50;1.00;;;13.50;98.20;;;;;;4980212;28;20473;-78
2023/05/06 06:05:00;;;;;;;1.50;1.00;;;13.50;98.20;;;;;;4989501;28;20465;-82
2023/05/06 06:07:38;;;;;;;1.50;1.00;;;13.60;98.20;;;;;;4982150;28;20657;-81
2023/05/06 06:10:12;;;;;;;1.50;1.10;;;13.70;98.20;;;;;;4991542;28;20469;-81
2023/05/06 06:12:40;;;;;;;1.50;1.00;;;13.80;98.20;;;;;;4978669;28;20562;-85
2023/05/06 06:15:08;;;;;;;1.50;1.00;;;13.90;98.20;;;;;;4988880;28;20845;-77
2023/05/06 06:17:35;;;;;;;1.50;1.00;;;14.00;98.20;;;;;;4976965;28;20473;-80
2023/05/06 06:20:01;;;;;;;1.50;0.97;;;14.10;98.20;;;;;;4988050;28;20553;-81
2023/05/06 06:22:28;;;;;;;1.60;1.13;;;14.20;98.20;;;;;;4963368;28;20494;-81
2023/05/06 06:24:55;;;;;;;1.50;1.00;;;14.30;98.20;;;;;;4988015;28;20475;-80
2023/05/06 06:27:22;;;;;;;1.50;1.00;;;14.50;98.20;;;;;;4964115;28;20482;-81
2023/05/06 06:29:50;;;;;;;1.60;1.10;;;14.80;98.20;;;;;;4986354;28;20472;-80
2023/05/06 06:32:17;;;;;;;1.50;0.90;;;15.10;98.20;;;;;;4985379;28;20482;-82
2023/05/06 06:34:44;;;;;;;1.50;1.00;;;15.40;98.20;;;;;;4986638;28;21160;-82
2023/05/06 06:37:11;;;;;;;1.50;0.90;;;15.70;98.20;;;;;;4982272;28;20485;-80
2023/05/06 06:39:38;;;;;;;1.50;0.90;;;15.90;98.20;;;;;;4987923;28;20551;-81
2023/05/06 06:42:05;;;;;;;1.50;1.00;;;16.00;98.20;;;;;;4982959;28;20835;-83
2023/05/06 06:44:33;;;;;;;1.50;0.90;;;16.10;98.20;;;;;;4985743;28;20940;-83
2023/05/06 06:47:01;;;;;;;1.50;1.00;;;16.40;98.20;;;;;;4967168;28;20490;-80
2023/05/06 06:49:28;;;;;;;1.50;0.90;;;16.70;98.20;;;;;;4981898;28;20489;-81
2023/05/06 06:51:56;;;;;;;1.50;0.90;;;16.90;98.20;;;;;;4979053;28;20545;-83
2023/05/06 06:54:23;;;;;;;1.50;0.90;;;17.20;98.20;;;;;;4988300;28;20469;-83
2023/05/06 06:56:53;;;;;;;1.50;1.10;;;17.40;98.20;;;;;;4970218;28;20493;-81
2023/05/06 06:59:19;;;;;;;1.50;0.90;;;17.40;98.20;;;;;;4984236;28;20481;-82
2023/05/06 07:01:51;;;;;;;1.50;0.93;;;17.60;98.20;;;;;;4978731;28;20874;-82
2023/05/06 07:04:19;;;;;;;1.50;0.97;;;17.70;98.20;;;;;;4990961;28;20970;-83
2023/05/06 07:06:45;;;;;;;1.50;0.90;;;17.80;98.20;;;;;;4977399;28;20872;-86
2023/05/06 07:09:12;;;;;;;1.50;0.90;;;17.70;98.20;;;;;;4987623;28;20481;-82
2023/05/06 07:11:39;;;;;;;1.50;0.90;;;17.90;98.20;;;;;;4969751;28;20513;-84
2023/05/06 07:14:06;;;;;;;1.50;0.90;;;18.10;98.20;;;;;;4978781;28;20540;-83
2023/05/06 07:19:14;;;;;;;1.50;0.90;;;18.30;98.20;;;;;;4981749;28;20514;-79
2023/05/06 07:21:42;;;;;;;1.60;1.20;;;18.40;98.20;;;;;;4971599;28;20482;-79
2023/05/06 07:24:09;;;;;;;1.50;1.00;;;18.50;98.20;;;;;;4979756;28;20489;-79
2023/05/06 07:26:36;;;;;;;1.70;1.20;;;18.70;98.20;;;;;;4986407;28;20521;-80
2023/05/06 07:29:04;;;;;;;1.50;0.90;;;18.80;98.20;;;;;;4990220;28;20512;-80
2023/05/06 07:31:32;;;;;;;1.60;1.10;;;19.10;98.20;;;;;;4984606;28;20485;-82
2023/05/06 07:33:59;;;;;;;1.50;0.90;;;19.10;98.20;;;;;;4988731;28;20854;-82
2023/05/06 07:36:38;;;;;;;1.53;1.00;;;19.30;98.20;;;;;;4972212;28;20500;-81
2023/05/06 07:39:06;;;;;;;1.50;0.90;;;19.50;98.20;;;;;;4975578;28;20520;-83
2023/05/06 07:41:33;;;;;;;1.53;0.90;;;19.70;98.20;;;;;;4979058;28;20536;-83
2023/05/06 07:44:01;;;;;;;1.50;0.90;;;20.00;98.20;;;;;;4988924;28;20559;-81
2023/05/06 07:46:28;;;;;;;1.50;0.90;;;20.10;98.20;;;;;;4971521;28;20489;-81
2023/05/06 07:48:55;;;;;;;1.50;0.90;;;20.30;98.20;;;;;;4982166;28;20477;-79
2023/05/06 07:51:22;;;;;;;1.50;0.90;;;20.50;98.20;;;;;;4973589;28;20668;-82
2023/05/06 07:53:49;;;;;;;1.50;0.90;;;20.70;98.20;;;;;;4984687;28;20461;-80
2023/05/06 07:56:18;;;;;;;1.50;0.90;;;21.00;98.20;;;;;;4974400;28;20480;-80
2023/05/06 07:58:45;;;;;;;1.50;0.90;;;21.10;98.20;;;;;;4989080;28;20508;-79
2023/05/06 08:01:13;;;;;;;1.50;0.90;;;21.30;98.20;;;;;;4978497;28;20571;-82
2023/05/06 08:03:40;;;;;;;1.70;1.40;;;21.40;98.20;;;;;;4984272;28;20923;-81
2023/05/06 08:06:07;;;;;;;1.50;0.90;;;21.50;98.20;;;;;;4971729;28;20487;-78
2023/05/06 08:08:35;;;;;;;1.50;0.90;;;21.50;98.20;;;;;;4971083;28;20489;-78
2023/05/06 08:11:02;;;;;;;1.50;1.03;;;21.50;98.20;;;;;;4974592;28;20755;-80
2023/05/06 08:13:32;;;;;;;1.50;0.90;;;21.70;98.20;;;;;;4986701;28;20882;-80
2023/05/06 08:16:01;;;;;;;1.50;0.90;;;21.80;98.20;;;;;;4976971;28;20951;-78
2023/05/06 08:18:28;;;;;;;1.50;0.90;;;21.80;98.20;;;;;;4970961;28;20487;-79
2023/05/06 08:20:55;;;;;;;1.50;0.90;;;21.70;97.90;;;;;;4972940;28;20574;-80
2023/05/06 08:23:22;;;;;;;1.50;0.80;;;21.80;98.20;;;;;;4968655;28;20558;-82
2023/05/06 08:25:49;;;;;;;1.50;0.90;;;21.80;98.20;;;;;;4974573;28;20550;-81
2023/05/06 08:28:16;;;;;;;1.50;0.90;;;21.80;97.80;;;;;;4967913;28;20481;-82
2023/05/06 08:30:47;;;;;;;1.50;0.87;;;21.90;98.20;;;;;;4984909;28;20469;-80
2023/05/06 08:33:14;;;;;;;1.50;0.80;;;22.10;98.20;;;;;;4966996;28;20485;-80
2023/05/06 08:35:41;;;;;;;1.60;1.30;;;22.10;97.60;;;;;;4991715;28;20522;-79
2023/05/06 08:38:08;;;;;;;1.50;0.90;;;22.10;98.10;;;;;;4965992;28;20480;-81
2023/05/06 08:40:41;;;;;;;1.57;1.17;;;22.10;97.80;;;;;;4990639;28;20548;-80
2023/05/06 08:43:13;;;;;;;1.47;0.87;;;22.20;96.20;;;;;;4983454;28;20673;-81
2023/05/06 08:45:40;;;;;;;1.50;0.90;;;22.30;95.70;;;;;;4990525;28;21374;-79
2023/05/06 08:48:09;;;;;;;1.50;0.90;;;22.40;92.20;;;;;;4963800;28;20489;-81
2023/05/06 08:50:41;;;;;;;1.50;0.90;;;22.40;92.60;;;;;;4991556;28;20493;-80
2023/05/06 08:53:10;;;;;;;1.50;0.90;;;22.50;91.70;;;;;;4985355;28;20481;-79
2023/05/06 08:55:38;;;;;;;1.50;0.90;;;22.60;91.30;;;;;;4989980;28;20468;-78
2023/05/06 08:58:07;;;;;;;1.50;0.90;;;22.80;92.30;;;;;;4977344;28;20481;-82
2023/05/06 09:00:35;;;;;;;1.47;0.80;;;23.10;91.50;;;;;;4992201;28;21410;-78
2023/05/06 09:03:03;;;;;;;1.50;0.90;;;23.20;91.90;;;;;;4976977;28;20672;-79
2023/05/06 09:05:32;;;;;;;1.50;0.90;;;23.30;89.40;;;;;;4994441;28;20558;-80
2023/05/06 09:07:59;;;;;;;1.50;0.90;;;23.40;88.90;;;;;;4961981;28;21456;-81
2023/05/06 09:10:32;;;;;;;1.40;0.80;;;23.40;89.30;;;;;;4988693;28;20457;-79
2023/05/06 09:12:59;;;;;;;1.40;0.90;;;23.60;88.20;;;;;;4955587;28;20493;-78
2023/05/06 09:15:27;;;;;;;1.50;0.90;;;23.70;89.40;;;;;;4986509;28;20468;-80
2023/05/06 09:17:55;;;;;;;1.50;0.90;;;24.00;89.00;;;;;;4982815;28;20485;-79
2023/05/06 09:20:22;;;;;;;1.50;0.80;;;24.00;88.50;;;;;;4986762;28;20464;-79
2023/05/06 09:22:51;;;;;;;1.43;0.90;;;24.10;87.50;;;;;;4998279;28;20482;-80
2023/05/06 09:25:18;;;;;;;1.50;0.90;;;24.30;87.20;;;;;;4988586;28;20987;-80
2023/05/06 09:27:45;;;;;;;1.50;0.90;;;24.50;85.60;;;;;;4962366;28;20487;-81
2023/05/06 09:30:14;;;;;;;1.50;0.90;;;24.60;85.70;;;;;;4986770;28;20522;-78
2023/05/06 09:32:41;;;;;;;1.50;0.80;;;24.70;86.40;;;;;;4977867;28;20679;-80
2023/05/06 09:35:10;;;;;;;1.50;0.90;;;24.90;84.80;;;;;;4988180;28;20982;-78
2023/05/06 09:38:01;;;;;;;1.50;0.90;;;25.00;82.20;;;;;;4965257;28;20493;-80
2023/05/06 09:40:30;;;;;;;1.50;0.80;;;24.90;82.10;;;;;;4984662;28;20515;-79
2023/05/06 09:42:57;;;;;;;1.50;0.90;;;25.10;84.30;;;;;;4975608;28;20484;-77
2023/05/06 09:45:25;;;;;;;1.50;0.90;;;25.30;83.30;;;;;;4986390;28;20472;-80
2023/05/06 09:47:53;;;;;;;1.50;0.90;;;25.40;82.40;;;;;;4955558;28;20767;-77
2023/05/06 09:50:21;;;;;;;1.47;0.80;;;25.50;82.20;;;;;;4983368;28;20464;-78
2023/05/06 09:52:50;;;;;;;1.50;0.80;;;25.60;80.60;;;;;;4956028;28;20488;-78
2023/05/06 09:55:19;;;;;;;1.50;0.90;;;25.40;78.10;;;;;;4984097;28;20981;-78
2023/05/06 09:57:49;;;;;;;1.50;0.90;;;25.30;78.70;;;;;;4973646;28;20567;-80
2023/05/06 10:00:17;;;;;;;1.50;0.80;;;25.40;80.50;;;;;;4985469;28;20893;-79
2023/05/06 10:02:46;;;;;;;1.50;0.90;;;25.50;80.90;;;;;;4956184;28;20490;-79
2023/05/06 10:05:14;;;;;;;1.50;0.90;;;25.60;81.90;;;;;;4984674;28;20471;-81
2023/05/06 10:07:42;;;;;;;1.47;0.80;;;25.60;82.40;;;;;;4975152;28;20496;-79
2023/05/06 10:10:10;;;;;;;1.43;0.80;;;25.70;81.80;;;;;;4984387;28;20469;-82
2023/05/06 10:12:38;;;;;;;1.50;0.83;;;25.90;81.40;;;;;;4957013;28;20520;-80
2023/05/06 10:15:08;;;;;;;1.50;0.80;;;26.00;81.60;;;;;;4983761;28;20979;-81
2023/05/06 10:17:39;;;;;;;1.50;0.80;;;26.10;79.70;;;;;;4957875;28;20490;-82
2023/05/06 10:20:10;;;;;;;1.50;0.90;;;26.20;80.90;;;;;;4980481;28;20815;-80
2023/05/06 10:22:48;;;;;;;1.50;0.80;;;26.40;80.30;;;;;;4974365;28;20480;-82
2023/05/06 10:25:23;;;;;;;1.50;0.90;;;26.40;79.30;;;;;;4982224;28;20907;-80
2023/05/06 10:27:52;;;;;;;1.50;0.80;;;26.30;78.80;;;;;;4954608;28;20488;-80
2023/05/06 10:30:22;;;;;;;1.50;0.90;;;26.40;79.40;;;;;;4983755;28;20479;-78
2023/05/06 10:32:57;;;;;;;1.43;0.80;;;26.40;77.80;;;;;;4975635;28;20507;-80
2023/05/06 10:35:34;;;;;;;1.50;0.80;;;26.40;77.80;;;;;;4992304;28;20471;-80
2023/05/06 10:38:09;;;;;;;1.47;0.80;;;26.50;81.00;;;;;;4959233;28;20551;-79
2023/05/06 10:40:37;;;;;;;1.50;0.80;;;26.70;78.10;;;;;;4986075;28;20495;-78
2023/05/06 10:43:23;;;;;;;1.47;0.80;;;26.70;78.10;;;;;;4972940;28;20553;-78
2023/05/06 10:46:07;;;;;;;1.50;0.90;;;26.80;78.00;;;;;;4972147;28;20534;-77
2023/05/06 10:48:36;;;;;;;1.47;0.80;;;26.90;76.50;;;;;;4981866;28;20484;-78
2023/05/06 10:51:27;;;;;;;1.50;0.90;;;27.00;78.70;;;;;;4970934;28;21013;-78
2023/05/06 10:54:02;;;;;;;1.50;0.80;;;26.90;74.90;;;;;;4969115;28;20819;-79
2023/05/06 10:56:33;;;;;;;1.47;0.80;;;26.90;76.20;;;;;;4970382;28;20507;-79
2023/05/06 10:59:10;;;;;;;1.47;0.80;;;26.80;75.20;;;;;;4964250;28;20530;-81
2023/05/06 11:01:40;;;;;;;1.43;0.90;;;26.80;77.20;;;;;;4975698;28;20583;-77
2023/05/06 11:04:10;;;;;;;1.47;0.90;;;26.80;77.00;;;;;;4984180;28;20738;-78
2023/05/06 11:06:41;;;;;;;1.50;0.80;;;26.90;75.00;;;;;;4971669;28;21156;-78
2023/05/06 11:09:17;;;;;;;1.43;0.90;;;27.10;75.90;;;;;;4979748;28;20508;-79
2023/05/06 11:11:51;;;;;;;1.50;0.90;;;27.30;73.50;;;;;;4973689;28;20555;-78
2023/05/06 11:14:30;;;;;;;1.50;0.80;;;27.30;73.30;;;;;;4980634;28;20516;-78
2023/05/06 11:17:00;;;;;;;1.50;0.90;;;27.30;73.80;;;;;;5007547;28;20986;-77
2023/05/06 11:19:29;;;;;;;1.47;0.80;;;27.40;74.30;;;;;;5005968;28;20528;-77
2023/05/06 11:21:58;;;;;;;1.50;0.80;;;27.50;72.80;;;;;;4968086;28;20514;-78
2023/05/06 11:24:28;;;;;;;1.47;0.80;;;27.60;73.50;;;;;;4979456;28;20464;-78
2023/05/06 11:26:57;;;;;;;1.50;0.90;;;27.70;74.40;;;;;;5004686;28;20866;-80
2023/05/06 11:29:25;;;;;;;1.50;0.80;;;27.80;73.20;;;;;;5008615;28;20532;-78
2023/05/06 11:31:54;;;;;;;1.50;0.90;;;27.70;72.50;;;;;;5007509;28;20531;-78
2023/05/06 11:34:26;;;;;;;1.47;0.80;;;27.70;72.70;;;;;;5008966;28;20855;-80
2023/05/06 11:37:01;;;;;;;1.47;0.83;;;27.70;73.30;;;;;;4971504;28;20563;-80
2023/05/06 11:39:30;;;;;;;1.40;0.83;;;27.70;71.90;;;;;;4983122;28;20491;-77
2023/05/06 11:42:01;;;;;;;1.47;0.80;;;27.70;74.20;;;;;;4969904;28;20479;-80
2023/05/06 11:44:33;;;;;;;1.47;0.80;;;27.70;74.60;;;;;;4978535;28;20474;-79
2023/05/06 11:47:04;;;;;;;1.40;0.80;;;27.60;74.40;;;;;;4968514;28;20486;-79
2023/05/06 11:49:39;;;;;;;1.50;0.80;;;27.40;74.10;;;;;;4979321;28;21086;-76
2023/05/06 11:52:08;;;;;;;1.43;0.80;;;27.30;72.00;;;;;;4955671;28;20476;-75
2023/05/06 11:54:36;;;;;;;1.47;0.80;;;27.30;72.80;;;;;;4971638;28;20497;-79
2023/05/06 11:57:05;;;;;;;1.47;0.90;;;27.50;76.40;;;;;;4968796;28;20550;-77
2023/05/06 11:59:34;;;;;;;1.47;0.80;;;28.00;74.80;;;;;;4978488;28;20986;-80
2023/05/06 12:02:05;;;;;;;1.47;0.80;;;28.40;71.20;;;;;;4957548;28;20481;-80
2023/05/06 12:04:41;;;;;;;1.43;0.80;;;28.60;71.00;;;;;;4973793;28;20771;-80
2023/05/06 12:07:10;;;;;;;1.50;0.80;;;28.70;71.40;;;;;;4956292;28;20492;-80
2023/05/06 12:09:40;;;;;;;1.50;0.80;;;29.00;72.50;;;;;;4974686;28;20472;-79
2023/05/06 12:12:11;;;;;;;1.47;0.80;;;29.30;71.30;;;;;;4970376;28;20542;-79
2023/05/06 12:14:39;;;;;;;1.50;0.80;;;29.40;68.30;;;;;;4978038;28;20894;-78
2023/05/06 12:17:07;;;;;;;1.50;0.80;;;29.40;69.60;;;;;;4971482;28;20237;-78
2023/05/06 12:19:36;;;;;;;1.47;0.80;;;29.60;70.40;;;;;;4979533;28;20225;-79
2023/05/06 12:22:18;;;;;;;1.47;0.80;;;29.40;69.70;;;;;;4969100;28;20520;-80
2023/05/06 12:24:45;;;;;;;1.47;0.80;;;29.10;71.70;;;;;;4979355;28;20460;-80
2023/05/06 12:27:13;;;;;;;1.47;0.80;;;29.00;71.90;;;;;;4956011;28;20572;-79
2023/05/06 12:29:41;;;;;;;1.43;0.80;;;29.00;71.40;;;;;;4976510;28;20472;-79
2023/05/06 12:32:09;;;;;;;1.43;0.80;;;28.80;73.60;;;;;;4970972;28;21626;-79
2023/05/06 12:34:38;;;;;;;1.43;0.80;;;28.60;72.00;;;;;;4980447;28;20479;-77
2023/05/06 12:37:07;;;;;;;1.47;0.80;;;28.50;70.40;;;;;;4970938;28;20513;-79
2023/05/06 12:42:57;;;;;;;1.47;0.80;;;28.40;69.80;;;;;;5018300;22;21026;-82
2023/05/06 12:45:26;;;;;;;1.43;0.83;;;28.50;72.70;;;;;;4998668;28;20506;-81
2023/05/06 12:47:54;;;;;;;1.43;0.80;;;28.50;70.10;;;;;;4981521;28;20761;-81
2023/05/06 12:50:43;;;;;;;1.47;0.80;;;28.40;70.40;;;;;;4998945;28;20463;-82
2023/05/06 12:53:12;;;;;;;1.47;0.83;;;28.30;71.50;;;;;;4962958;28;21066;-82
2023/05/06 12:55:41;;;;;;;1.47;0.80;;;28.30;70.60;;;;;;4981747;28;20471;-81
2023/05/06 12:58:18;;;;;;;1.50;0.80;;;28.20;71.50;;;;;;4967576;28;20664;-81
2023/05/06 13:00:47;;;;;;;1.47;0.80;;;27.90;71.10;;;;;;4983619;28;20490;-83